sensor_id;sensor_type;location;lat;lon;timestamp;temperature;humidity
31263;DHT22;17892;52.080;9.006;2023-11-21T00:01:41;9.50;99.90
31263;DHT22;17892;52.080;9.006;2023-11-21T00:04:07;9.50;99.90
31263;DHT22;17892;52.080;9.006;2023-11-21T00:06:33;9.60;99.90
31263;DHT22;17892;52.080;9.006;2023-11-21T00:08:59;9.60;99.90
31263;DHT22;17892;52.080;9.006;2023-11-21T00:11:25;9.60;99.90
31263;DHT22;17892;52.080;9.006;2023-11-21T00:13:51;9.70;99.90
31263;DHT22;17892;52.080;9.006;2023-11-21T00:16:16;9.70;99.90
31263;DHT22;17892;52.080;9.006;2023-11-21T00:18:42;9.80;99.90
31263;DHT22;17892;52.080;9.006;2023-11-21T00:21:08;9.80;99.90
31263;DHT22;17892;52.080;9.006;2023-11-21T00:23:34;9.80;99.90
31263;DHT22;17892;52.080;9.006;2023-11-21T00:26:00;9.90;99.90
31263;DHT22;17892;52.080;9.006;2023-11-21T00:28:26;9.90;99.90
31263;DHT22;17892;52.080;9.006;2023-11-21T00:30:52;9.90;99.90
31263;DHT22;17892;52.080;9.006;2023-11-21T00:33:17;9.90;99.90
31263;DHT22;17892;52.080;9.006;2023-11-21T00:35:43;10.00;99.90
31263;DHT22;17892;52.080;9.006;2023-11-21T00:38:09;10.00;99.90
31263;DHT22;17892;52.080;9.006;2023-11-21T00:40:35;10.00;99.90
31263;DHT22;17892;52.080;9.006;2023-11-21T00:43:00;10.00;99.90
31263;DHT22;17892;52.080;9.006;2023-11-21T00:45:26;10.00;99.90
31263;DHT22;17892;52.080;9.006;2023-11-21T00:47:52;10.10;99.90
31263;DHT22;17892;52.080;9.006;2023-11-21T00:50:18;10.10;99.90
31263;DHT22;17892;52.080;9.006;2023-11-21T00:52:44;10.10;99.90
31263;DHT22;17892;52.080;9.006;2023-11-21T00:55:10;10.10;99.90
31263;DHT22;17892;52.080;9.006;2023-11-21T00:57:37;10.00;99.90
31263;DHT22;17892;52.080;9.006;2023-11-21T01:00:03;10.10;99.90
31263;DHT22;17892;52.080;9.006;2023-11-21T01:02:39;10.00;99.90
31263;DHT22;17892;52.080;9.006;2023-11-21T01:05:05;10.10;99.90
31263;DHT22;17892;52.080;9.006;2023-11-21T01:07:33;10.00;99.90
31263;DHT22;17892;52.080;9.006;2023-11-21T01:09:59;10.10;99.90
31263;DHT22;17892;52.080;9.006;2023-11-21T01:12:24;10.10;99.90
31263;DHT22;17892;52.080;9.006;2023-11-21T01:14:50;10.10;99.90
31263;DHT22;17892;52.080;9.006;2023-11-21T01:17:16;10.10;99.90
31263;DHT22;17892;52.080;9.006;2023-11-21T01:19:43;10.10;99.90
31263;DHT22;17892;52.080;9.006;2023-11-21T01:22:09;10.10;99.90
31263;DHT22;17892;52.080;9.006;2023-11-21T01:24:37;10.10;99.90
31263;DHT22;17892;52.080;9.006;2023-11-21T01:27:03;10.10;99.90
31263;DHT22;17892;52.080;9.006;2023-11-21T01:29:29;10.10;99.90
31263;DHT22;17892;52.080;9.006;2023-11-21T01:31:55;10.10;99.90
31263;DHT22;17892;52.080;9.006;2023-11-21T01:34:23;10.20;99.90
31263;DHT22;17892;52.080;9.006;2023-11-21T01:36:48;10.20;99.90
31263;DHT22;17892;52.080;9.006;2023-11-21T01:39:16;10.20;99.90
31263;DHT22;17892;52.080;9.006;2023-11-21T01:41:49;10.20;99.90
31263;DHT22;17892;52.080;9.006;2023-11-21T01:44:15;10.20;99.90
31263;DHT22;17892;52.080;9.006;2023-11-21T01:46:42;10.20;99.90
31263;DHT22;17892;52.080;9.006;2023-11-21T01:49:09;10.20;99.90
31263;DHT22;17892;52.080;9.006;2023-11-21T01:51:38;10.20;99.90
31263;DHT22;17892;52.080;9.006;2023-11-21T01:54:06;10.20;99.90
31263;DHT22;17892;52.080;9.006;2023-11-21T01:56:32;10.20;99.90
31263;DHT22;17892;52.080;9.006;2023-11-21T01:59:00;10.20;99.90
31263;DHT22;17892;52.080;9.006;2023-11-21T02:01:26;10.20;99.90
31263;DHT22;17892;52.080;9.006;2023-11-21T02:03:51;10.20;99.90
31263;DHT22;17892;52.080;9.006;2023-11-21T02:06:18;10.20;99.90
31263;DHT22;17892;52.080;9.006;2023-11-21T02:08:44;10.30;99.90
31263;DHT22;17892;52.080;9.006;2023-11-21T02:11:10;10.20;99.90
31263;DHT22;17892;52.080;9.006;2023-11-21T02:13:38;10.20;99.90
31263;DHT22;17892;52.080;9.006;2023-11-21T02:16:09;10.20;99.90
31263;DHT22;17892;52.080;9.006;2023-11-21T02:18:38;10.20;99.90
31263;DHT22;17892;52.080;9.006;2023-11-21T02:21:05;10.20;99.90
31263;DHT22;17892;52.080;9.006;2023-11-21T02:23:31;10.20;99.90
31263;DHT22;17892;52.080;9.006;2023-11-21T02:25:56;10.20;99.90
31263;DHT22;17892;52.080;9.006;2023-11-21T02:28:22;10.20;99.90
31263;DHT22;17892;52.080;9.006;2023-11-21T02:30:51;10.20;99.90
31263;DHT22;17892;52.080;9.006;2023-11-21T02:33:24;10.20;99.90
31263;DHT22;17892;52.080;9.006;2023-11-21T02:35:50;10.20;99.90
31263;DHT22;17892;52.080;9.006;2023-11-21T02:38:22;10.20;99.90
31263;DHT22;17892;52.080;9.006;2023-11-21T02:40:48;10.30;99.90
31263;DHT22;17892;52.080;9.006;2023-11-21T02:43:14;10.30;99.90
31263;DHT22;17892;52.080;9.006;2023-11-21T02:45:40;10.30;99.90
31263;DHT22;17892;52.080;9.006;2023-11-21T02:48:07;10.30;99.90
31263;DHT22;17892;52.080;9.006;2023-11-21T02:50:33;10.30;99.90
31263;DHT22;17892;52.080;9.006;2023-11-21T02:53:00;10.30;99.90
31263;DHT22;17892;52.080;9.006;2023-11-21T02:55:27;10.30;99.90
31263;DHT22;17892;52.080;9.006;2023-11-21T02:57:53;10.30;99.90
31263;DHT22;17892;52.080;9.006;2023-11-21T03:00:21;10.30;99.90
31263;DHT22;17892;52.080;9.006;2023-11-21T03:02:49;10.30;99.90
31263;DHT22;17892;52.080;9.006;2023-11-21T03:05:15;10.30;99.90
31263;DHT22;17892;52.080;9.006;2023-11-21T03:07:40;10.30;99.90
31263;DHT22;17892;52.080;9.006;2023-11-21T03:10:07;10.30;99.90
31263;DHT22;17892;52.080;9.006;2023-11-21T03:12:37;10.30;99.90
31263;DHT22;17892;52.080;9.006;2023-11-21T03:15:05;10.30;99.90
31263;DHT22;17892;52.080;9.006;2023-11-21T03:17:31;10.30;99.90
31263;DHT22;17892;52.080;9.006;2023-11-21T03:19:59;10.30;99.90
31263;DHT22;17892;52.080;9.006;2023-11-21T03:22:29;10.40;99.90
31263;DHT22;17892;52.080;9.006;2023-11-21T03:24:54;10.30;99.90
31263;DHT22;17892;52.080;9.006;2023-11-21T03:27:20;10.40;99.90
31263;DHT22;17892;52.080;9.006;2023-11-21T03:29:46;10.40;99.90
31263;DHT22;17892;52.080;9.006;2023-11-21T03:32:13;10.40;99.90
31263;DHT22;17892;52.080;9.006;2023-11-21T03:34:56;10.40;99.90
31263;DHT22;17892;52.080;9.006;2023-11-21T03:37:23;10.40;99.90
31263;DHT22;17892;52.080;9.006;2023-11-21T03:39:50;10.40;99.90
31263;DHT22;17892;52.080;9.006;2023-11-21T03:42:16;10.40;99.90
31263;DHT22;17892;52.080;9.006;2023-11-21T03:44:42;10.40;99.90
31263;DHT22;17892;52.080;9.006;2023-11-21T03:47:08;10.40;99.90
31263;DHT22;17892;52.080;9.006;2023-11-21T03:49:33;10.40;99.90
31263;DHT22;17892;52.080;9.006;2023-11-21T03:55:40;10.50;99.90
31263;DHT22;17892;52.080;9.006;2023-11-21T03:58:06;10.40;99.90
31263;DHT22;17892;52.080;9.006;2023-11-21T04:00:31;10.40;99.90
31263;DHT22;17892;52.080;9.006;2023-11-21T04:02:57;10.40;99.90
31263;DHT22;17892;52.080;9.006;2023-11-21T04:05:24;10.40;99.90
31263;DHT22;17892;52.080;9.006;2023-11-21T04:07:50;10.40;99.90
31263;DHT22;17892;52.080;9.006;2023-11-21T04:10:16;10.40;99.90
31263;DHT22;17892;52.080;9.006;2023-11-21T04:12:43;10.40;99.90
31263;DHT22;17892;52.080;9.006;2023-11-21T04:15:10;10.40;99.90
31263;DHT22;17892;52.080;9.006;2023-11-21T04:17:36;10.40;99.90
31263;DHT22;17892;52.080;9.006;2023-11-21T04:20:04;10.40;99.90
31263;DHT22;17892;52.080;9.006;2023-11-21T04:22:33;10.40;99.90
31263;DHT22;17892;52.080;9.006;2023-11-21T04:24:59;10.40;99.90
31263;DHT22;17892;52.080;9.006;2023-11-21T04:27:25;10.40;99.90
31263;DHT22;17892;52.080;9.006;2023-11-21T04:29:50;10.30;99.90
31263;DHT22;17892;52.080;9.006;2023-11-21T04:32:16;10.30;99.90
31263;DHT22;17892;52.080;9.006;2023-11-21T04:34:41;10.30;99.90
31263;DHT22;17892;52.080;9.006;2023-11-21T04:37:07;10.30;99.90
31263;DHT22;17892;52.080;9.006;2023-11-21T04:39:34;10.30;99.90
31263;DHT22;17892;52.080;9.006;2023-11-21T04:42:00;10.30;99.90
31263;DHT22;17892;52.080;9.006;2023-11-21T04:44:26;10.30;99.90
31263;DHT22;17892;52.080;9.006;2023-11-21T04:46:51;10.30;99.90
31263;DHT22;17892;52.080;9.006;2023-11-21T04:49:17;10.30;99.90
31263;DHT22;17892;52.080;9.006;2023-11-21T04:51:43;10.30;99.90
31263;DHT22;17892;52.080;9.006;2023-11-21T04:54:08;10.30;99.90
31263;DHT22;17892;52.080;9.006;2023-11-21T04:56:34;10.40;99.90
31263;DHT22;17892;52.080;9.006;2023-11-21T04:59:00;10.40;99.90
31263;DHT22;17892;52.080;9.006;2023-11-21T05:01:25;10.40;99.90
31263;DHT22;17892;52.080;9.006;2023-11-21T05:03:51;10.30;99.90
31263;DHT22;17892;52.080;9.006;2023-11-21T05:06:17;10.40;99.90
31263;DHT22;17892;52.080;9.006;2023-11-21T05:08:43;10.30;99.90
31263;DHT22;17892;52.080;9.006;2023-11-21T05:11:09;10.30;99.90
31263;DHT22;17892;52.080;9.006;2023-11-21T05:13:36;10.30;99.90
31263;DHT22;17892;52.080;9.006;2023-11-21T05:16:02;10.30;99.90
31263;DHT22;17892;52.080;9.006;2023-11-21T05:18:32;10.30;99.90
31263;DHT22;17892;52.080;9.006;2023-11-21T05:20:59;10.30;99.90
31263;DHT22;17892;52.080;9.006;2023-11-21T05:23:26;10.30;99.90
31263;DHT22;17892;52.080;9.006;2023-11-21T05:25:51;10.30;99.90
31263;DHT22;17892;52.080;9.006;2023-11-21T05:28:17;10.30;99.90
31263;DHT22;17892;52.080;9.006;2023-11-21T05:30:43;10.30;99.90
31263;DHT22;17892;52.080;9.006;2023-11-21T05:33:09;10.30;99.90
31263;DHT22;17892;52.080;9.006;2023-11-21T05:35:35;10.30;99.90
31263;DHT22;17892;52.080;9.006;2023-11-21T05:38:01;10.30;99.90
31263;DHT22;17892;52.080;9.006;2023-11-21T05:40:26;10.30;99.90
31263;DHT22;17892;52.080;9.006;2023-11-21T05:42:55;10.30;99.90
31263;DHT22;17892;52.080;9.006;2023-11-21T05:45:21;10.30;99.90
31263;DHT22;17892;52.080;9.006;2023-11-21T05:47:47;10.30;99.90
31263;DHT22;17892;52.080;9.006;2023-11-21T05:50:15;10.30;99.90
31263;DHT22;17892;52.080;9.006;2023-11-21T05:52:46;10.30;99.90
31263;DHT22;17892;52.080;9.006;2023-11-21T05:55:13;10.40;99.90
31263;DHT22;17892;52.080;9.006;2023-11-21T05:57:39;10.40;99.90
31263;DHT22;17892;52.080;9.006;2023-11-21T06:00:08;10.40;99.90
31263;DHT22;17892;52.080;9.006;2023-11-21T06:02:47;10.40;99.90
31263;DHT22;17892;52.080;9.006;2023-11-21T06:05:17;10.40;99.90
31263;DHT22;17892;52.080;9.006;2023-11-21T06:07:43;10.40;99.90
31263;DHT22;17892;52.080;9.006;2023-11-21T06:10:10;10.40;99.90
31263;DHT22;17892;52.080;9.006;2023-11-21T06:12:39;10.50;99.90
31263;DHT22;17892;52.080;9.006;2023-11-21T06:15:08;10.50;99.90
31263;DHT22;17892;52.080;9.006;2023-11-21T06:17:35;10.50;99.90
31263;DHT22;17892;52.080;9.006;2023-11-21T06:20:02;10.50;99.90
31263;DHT22;17892;52.080;9.006;2023-11-21T06:22:35;10.50;99.90
31263;DHT22;17892;52.080;9.006;2023-11-21T06:25:02;10.50;99.90
31263;DHT22;17892;52.080;9.006;2023-11-21T06:27:30;10.50;99.90
31263;DHT22;17892;52.080;9.006;2023-11-21T06:30:06;10.50;99.90
31263;DHT22;17892;52.080;9.006;2023-11-21T06:32:34;10.50;99.90
31263;DHT22;17892;52.080;9.006;2023-11-21T06:35:02;10.50;99.90
31263;DHT22;17892;52.080;9.006;2023-11-21T06:37:29;10.50;99.90
31263;DHT22;17892;52.080;9.006;2023-11-21T06:39:56;10.50;99.90
31263;DHT22;17892;52.080;9.006;2023-11-21T06:42:23;10.40;99.90
31263;DHT22;17892;52.080;9.006;2023-11-21T06:44:53;10.40;99.90
31263;DHT22;17892;52.080;9.006;2023-11-21T06:47:29;10.40;99.90
31263;DHT22;17892;52.080;9.006;2023-11-21T06:49:56;10.40;99.90
31263;DHT22;17892;52.080;9.006;2023-11-21T06:52:22;10.40;99.90
31263;DHT22;17892;52.080;9.006;2023-11-21T06:54:48;10.30;99.90
31263;DHT22;17892;52.080;9.006;2023-11-21T06:57:16;10.30;99.90
31263;DHT22;17892;52.080;9.006;2023-11-21T06:59:42;10.30;99.90
31263;DHT22;17892;52.080;9.006;2023-11-21T07:02:08;10.30;99.90
31263;DHT22;17892;52.080;9.006;2023-11-21T07:04:35;10.30;99.90
31263;DHT22;17892;52.080;9.006;2023-11-21T07:07:02;10.30;99.90
31263;DHT22;17892;52.080;9.006;2023-11-21T07:09:29;10.30;99.90
31263;DHT22;17892;52.080;9.006;2023-11-21T07:11:55;10.30;99.90
31263;DHT22;17892;52.080;9.006;2023-11-21T07:14:21;10.30;99.90
31263;DHT22;17892;52.080;9.006;2023-11-21T07:16:47;10.20;99.90
31263;DHT22;17892;52.080;9.006;2023-11-21T07:19:13;10.20;99.90
31263;DHT22;17892;52.080;9.006;2023-11-21T07:21:39;10.20;99.90
31263;DHT22;17892;52.080;9.006;2023-11-21T07:24:06;10.20;99.90
31263;DHT22;17892;52.080;9.006;2023-11-21T07:26:33;10.20;99.90
31263;DHT22;17892;52.080;9.006;2023-11-21T07:29:01;10.30;99.90
31263;DHT22;17892;52.080;9.006;2023-11-21T07:31:28;10.30;99.90
31263;DHT22;17892;52.080;9.006;2023-11-21T07:33:54;10.30;99.90
31263;DHT22;17892;52.080;9.006;2023-11-21T07:36:23;10.30;99.90
31263;DHT22;17892;52.080;9.006;2023-11-21T07:38:49;10.30;99.90
31263;DHT22;17892;52.080;9.006;2023-11-21T07:41:16;10.30;99.90
31263;DHT22;17892;52.080;9.006;2023-11-21T07:43:43;10.30;99.90
31263;DHT22;17892;52.080;9.006;2023-11-21T07:46:10;10.30;99.90
31263;DHT22;17892;52.080;9.006;2023-11-21T07:48:38;10.30;99.90
31263;DHT22;17892;52.080;9.006;2023-11-21T07:51:04;10.30;99.90
31263;DHT22;17892;52.080;9.006;2023-11-21T07:53:30;10.30;99.90
31263;DHT22;17892;52.080;9.006;2023-11-21T07:55:57;10.30;99.90
31263;DHT22;17892;52.080;9.006;2023-11-21T07:58:23;10.30;99.90
31263;DHT22;17892;52.080;9.006;2023-11-21T08:00:49;10.30;99.90
31263;DHT22;17892;52.080;9.006;2023-11-21T08:03:15;10.30;99.90
31263;DHT22;17892;52.080;9.006;2023-11-21T08:05:42;10.30;99.90
31263;DHT22;17892;52.080;9.006;2023-11-21T08:08:08;10.30;99.90
31263;DHT22;17892;52.080;9.006;2023-11-21T08:10:34;10.30;99.90
31263;DHT22;17892;52.080;9.006;2023-11-21T08:13:01;10.30;99.90
31263;DHT22;17892;52.080;9.006;2023-11-21T08:15:27;10.30;99.90
31263;DHT22;17892;52.080;9.006;2023-11-21T08:17:53;10.30;99.90
31263;DHT22;17892;52.080;9.006;2023-11-21T08:20:19;10.30;99.90
31263;DHT22;17892;52.080;9.006;2023-11-21T08:22:45;10.30;99.90
31263;DHT22;17892;52.080;9.006;2023-11-21T08:25:13;10.30;99.90
31263;DHT22;17892;52.080;9.006;2023-11-21T08:27:39;10.30;99.90
31263;DHT22;17892;52.080;9.006;2023-11-21T08:30:05;10.30;99.90
31263;DHT22;17892;52.080;9.006;2023-11-21T08:32:31;10.30;99.90
31263;DHT22;17892;52.080;9.006;2023-11-21T08:34:58;10.30;99.90
31263;DHT22;17892;52.080;9.006;2023-11-21T08:37:25;10.40;99.90
31263;DHT22;17892;52.080;9.006;2023-11-21T08:39:52;10.40;99.90
31263;DHT22;17892;52.080;9.006;2023-11-21T08:42:18;10.40;99.90
31263;DHT22;17892;52.080;9.006;2023-11-21T08:44:45;10.40;99.90
31263;DHT22;17892;52.080;9.006;2023-11-21T08:47:11;10.40;99.90
31263;DHT22;17892;52.080;9.006;2023-11-21T08:49:37;10.40;99.90
31263;DHT22;17892;52.080;9.006;2023-11-21T08:52:03;10.40;99.90
31263;DHT22;17892;52.080;9.006;2023-11-21T08:54:31;10.50;99.90
31263;DHT22;17892;52.080;9.006;2023-11-21T08:56:56;10.40;99.90
31263;DHT22;17892;52.080;9.006;2023-11-21T08:59:26;10.40;99.90
31263;DHT22;17892;52.080;9.006;2023-11-21T09:01:52;10.40;99.90
31263;DHT22;17892;52.080;9.006;2023-11-21T09:04:17;10.40;99.90
31263;DHT22;17892;52.080;9.006;2023-11-21T09:06:43;10.50;99.90
31263;DHT22;17892;52.080;9.006;2023-11-21T09:09:09;10.40;99.90
31263;DHT22;17892;52.080;9.006;2023-11-21T09:11:36;10.40;99.90
31263;DHT22;17892;52.080;9.006;2023-11-21T09:14:03;10.40;99.90
31263;DHT22;17892;52.080;9.006;2023-11-21T09:16:29;10.40;99.90
31263;DHT22;17892;52.080;9.006;2023-11-21T09:18:55;10.40;99.90
31263;DHT22;17892;52.080;9.006;2023-11-21T09:21:21;10.40;99.90
31263;DHT22;17892;52.080;9.006;2023-11-21T09:23:47;10.50;99.90
31263;DHT22;17892;52.080;9.006;2023-11-21T09:26:13;10.40;99.90
31263;DHT22;17892;52.080;9.006;2023-11-21T09:28:41;10.40;99.90
31263;DHT22;17892;52.080;9.006;2023-11-21T09:31:11;10.40;99.90
31263;DHT22;17892;52.080;9.006;2023-11-21T09:33:40;10.40;99.90
31263;DHT22;17892;52.080;9.006;2023-11-21T09:36:26;10.40;99.90
31263;DHT22;17892;52.080;9.006;2023-11-21T09:38:56;10.30;99.90
31263;DHT22;17892;52.080;9.006;2023-11-21T09:41:43;10.30;99.90
31263;DHT22;17892;52.080;9.006;2023-11-21T09:44:21;10.20;99.90
31263;DHT22;17892;52.080;9.006;2023-11-21T09:47:08;10.20;99.90
31263;DHT22;17892;52.080;9.006;2023-11-21T09:49:50;10.10;99.90
31263;DHT22;17892;52.080;9.006;2023-11-21T09:52:28;10.10;99.90
31263;DHT22;17892;52.080;9.006;2023-11-21T09:54:56;10.00;99.90
31263;DHT22;17892;52.080;9.006;2023-11-21T09:57:40;10.00;99.90
31263;DHT22;17892;52.080;9.006;2023-11-21T10:00:32;9.90;99.90
31263;DHT22;17892;52.080;9.006;2023-11-21T10:02:59;9.90;99.90
31263;DHT22;17892;52.080;9.006;2023-11-21T10:05:26;9.90;99.90
31263;DHT22;17892;52.080;9.006;2023-11-21T10:07:53;9.80;99.90
31263;DHT22;17892;52.080;9.006;2023-11-21T10:10:26;9.80;99.90
31263;DHT22;17892;52.080;9.006;2023-11-21T10:12:56;9.80;99.90
31263;DHT22;17892;52.080;9.006;2023-11-21T10:15:30;9.80;99.90
31263;DHT22;17892;52.080;9.006;2023-11-21T10:18:06;9.80;99.90
31263;DHT22;17892;52.080;9.006;2023-11-21T10:20:34;9.60;99.90
31263;DHT22;17892;52.080;9.006;2023-11-21T10:23:08;9.70;99.90
31263;DHT22;17892;52.080;9.006;2023-11-21T10:25:44;9.70;99.90
31263;DHT22;17892;52.080;9.006;2023-11-21T10:28:10;9.70;99.90
31263;DHT22;17892;52.080;9.006;2023-11-21T10:30:41;9.70;99.90
31263;DHT22;17892;52.080;9.006;2023-11-21T10:33:10;9.70;99.90
31263;DHT22;17892;52.080;9.006;2023-11-21T10:35:47;9.70;99.90
31263;DHT22;17892;52.080;9.006;2023-11-21T10:38:23;9.70;99.90
31263;DHT22;17892;52.080;9.006;2023-11-21T10:40:50;9.70;99.90
31263;DHT22;17892;52.080;9.006;2023-11-21T10:43:17;9.60;99.90
31263;DHT22;17892;52.080;9.006;2023-11-21T10:46:08;9.60;99.90
31263;DHT22;17892;52.080;9.006;2023-11-21T10:48:34;9.60;99.90
31263;DHT22;17892;52.080;9.006;2023-11-21T10:51:08;9.60;99.90
31263;DHT22;17892;52.080;9.006;2023-11-21T10:53:39;9.60;99.90
31263;DHT22;17892;52.080;9.006;2023-11-21T10:56:25;9.60;99.90
31263;DHT22;17892;52.080;9.006;2023-11-21T10:58:53;9.60;99.90
31263;DHT22;17892;52.080;9.006;2023-11-21T11:01:23;9.50;99.90
31263;DHT22;17892;52.080;9.006;2023-11-21T11:03:56;9.50;99.90
31263;DHT22;17892;52.080;9.006;2023-11-21T11:06:25;9.50;99.90
31263;DHT22;17892;52.080;9.006;2023-11-21T11:09:13;9.50;99.90
31263;DHT22;17892;52.080;9.006;2023-11-21T11:12:08;9.50;99.90
31263;DHT22;17892;52.080;9.006;2023-11-21T11:14:44;9.40;99.90
31263;DHT22;17892;52.080;9.006;2023-11-21T11:17:22;9.40;99.90
31263;DHT22;17892;52.080;9.006;2023-11-21T11:19:50;9.40;99.90
31263;DHT22;17892;52.080;9.006;2023-11-21T11:22:37;9.30;99.90
31263;DHT22;17892;52.080;9.006;2023-11-21T11:28:08;9.30;99.90
31263;DHT22;17892;52.080;9.006;2023-11-21T11:33:43;9.20;99.90
31263;DHT22;17892;52.080;9.006;2023-11-21T11:36:36;9.20;99.90
31263;DHT22;17892;52.080;9.006;2023-11-21T11:42:07;9.10;99.90
31263;DHT22;17892;52.080;9.006;2023-11-21T11:44:52;9.10;99.90
31263;DHT22;17892;52.080;9.006;2023-11-21T11:47:31;9.10;99.90
31263;DHT22;17892;52.080;9.006;2023-11-21T11:50:10;9.10;99.90
31263;DHT22;17892;52.080;9.006;2023-11-21T11:52:49;9.00;99.90
31263;DHT22;17892;52.080;9.006;2023-11-21T11:55:18;9.00;99.90
31263;DHT22;17892;52.080;9.006;2023-11-21T11:57:51;9.00;99.90
31263;DHT22;17892;52.080;9.006;2023-11-21T12:03:01;8.90;99.90
31263;DHT22;17892;52.080;9.006;2023-11-21T12:05:32;8.90;99.90
31263;DHT22;17892;52.080;9.006;2023-11-21T12:08:02;8.90;99.90
31263;DHT22;17892;52.080;9.006;2023-11-21T12:10:31;8.90;99.90
31263;DHT22;17892;52.080;9.006;2023-11-21T12:12:59;8.80;99.90
31263;DHT22;17892;52.080;9.006;2023-11-21T12:15:26;8.80;99.90
31263;DHT22;17892;52.080;9.006;2023-11-21T12:17:54;8.80;99.90
31263;DHT22;17892;52.080;9.006;2023-11-21T12:20:22;8.80;99.90
31263;DHT22;17892;52.080;9.006;2023-11-21T12:22:50;8.80;99.90
31263;DHT22;17892;52.080;9.006;2023-11-21T12:25:18;8.80;99.90
31263;DHT22;17892;52.080;9.006;2023-11-21T12:27:48;8.80;99.90
31263;DHT22;17892;52.080;9.006;2023-11-21T12:30:16;8.70;99.90
31263;DHT22;17892;52.080;9.006;2023-11-21T12:32:43;8.70;99.90
31263;DHT22;17892;52.080;9.006;2023-11-21T12:35:12;8.70;99.90
31263;DHT22;17892;52.080;9.006;2023-11-21T12:37:39;8.70;99.90
31263;DHT22;17892;52.080;9.006;2023-11-21T12:40:06;8.70;99.90
31263;DHT22;17892;52.080;9.006;2023-11-21T12:42:34;8.70;99.90
31263;DHT22;17892;52.080;9.006;2023-11-21T12:45:27;8.70;99.90
31263;DHT22;17892;52.080;9.006;2023-11-21T12:47:58;8.70;99.90
31263;DHT22;17892;52.080;9.006;2023-11-21T12:50:32;8.70;99.90
31263;DHT22;17892;52.080;9.006;2023-11-21T12:53:09;8.70;99.90
31263;DHT22;17892;52.080;9.006;2023-11-21T12:55:38;8.70;99.90
31263;DHT22;17892;52.080;9.006;2023-11-21T12:58:07;8.70;99.90
31263;DHT22;17892;52.080;9.006;2023-11-21T13:00:46;8.70;99.90
31263;DHT22;17892;52.080;9.006;2023-11-21T13:03:13;8.70;99.90
31263;DHT22;17892;52.080;9.006;2023-11-21T13:05:47;8.80;99.90
31263;DHT22;17892;52.080;9.006;2023-11-21T13:08:16;8.80;99.90
31263;DHT22;17892;52.080;9.006;2023-11-21T13:10:46;8.90;99.90
31263;DHT22;17892;52.080;9.006;2023-11-21T13:13:14;8.90;99.90
31263;DHT22;17892;52.080;9.006;2023-11-21T13:15:49;9.00;99.90
31263;DHT22;17892;52.080;9.006;2023-11-21T13:18:16;9.00;99.90
31263;DHT22;17892;52.080;9.006;2023-11-21T13:20:43;9.00;99.90
31263;DHT22;17892;52.080;9.006;2023-11-21T13:23:10;9.00;99.90
31263;DHT22;17892;52.080;9.006;2023-11-21T13:25:41;9.00;99.90
31263;DHT22;17892;52.080;9.006;2023-11-21T13:28:08;9.10;99.90
31263;DHT22;17892;52.080;9.006;2023-11-21T13:30:35;9.10;99.90
31263;DHT22;17892;52.080;9.006;2023-11-21T13:33:02;9.20;99.90
31263;DHT22;17892;52.080;9.006;2023-11-21T13:35:32;9.20;99.90
31263;DHT22;17892;52.080;9.006;2023-11-21T13:38:19;9.20;99.90
31263;DHT22;17892;52.080;9.006;2023-11-21T13:40:52;9.30;99.90
31263;DHT22;17892;52.080;9.006;2023-11-21T13:43:24;9.40;99.90
31263;DHT22;17892;52.080;9.006;2023-11-21T13:45:52;9.40;99.90
31263;DHT22;17892;52.080;9.006;2023-11-21T13:48:26;9.40;99.90
31263;DHT22;17892;52.080;9.006;2023-11-21T13:51:06;9.40;99.90
31263;DHT22;17892;52.080;9.006;2023-11-21T13:53:46;9.40;99.90
31263;DHT22;17892;52.080;9.006;2023-11-21T13:56:18;9.30;99.90
31263;DHT22;17892;52.080;9.006;2023-11-21T13:58:51;9.30;99.90
31263;DHT22;17892;52.080;9.006;2023-11-21T14:01:21;9.30;99.90
31263;DHT22;17892;52.080;9.006;2023-11-21T14:04:02;9.20;99.90
31263;DHT22;17892;52.080;9.006;2023-11-21T14:06:47;9.20;99.90
31263;DHT22;17892;52.080;9.006;2023-11-21T14:09:22;9.10;99.90
31263;DHT22;17892;52.080;9.006;2023-11-21T14:14:20;9.10;99.90
31263;DHT22;17892;52.080;9.006;2023-11-21T14:16:47;9.10;99.90
31263;DHT22;17892;52.080;9.006;2023-11-21T14:19:13;9.10;99.90
31263;DHT22;17892;52.080;9.006;2023-11-21T14:21:42;9.10;99.90
31263;DHT22;17892;52.080;9.006;2023-11-21T14:24:15;9.10;99.90
31263;DHT22;17892;52.080;9.006;2023-11-21T14:26:44;9.00;99.90
31263;DHT22;17892;52.080;9.006;2023-11-21T14:29:15;9.00;99.90
31263;DHT22;17892;52.080;9.006;2023-11-21T14:31:45;9.00;99.90
31263;DHT22;17892;52.080;9.006;2023-11-21T14:34:11;8.90;99.90
31263;DHT22;17892;52.080;9.006;2023-11-21T14:36:39;8.90;99.90
31263;DHT22;17892;52.080;9.006;2023-11-21T14:39:05;8.90;99.90
31263;DHT22;17892;52.080;9.006;2023-11-21T14:41:41;8.90;99.90
31263;DHT22;17892;52.080;9.006;2023-11-21T14:44:09;8.80;99.90
31263;DHT22;17892;52.080;9.006;2023-11-21T14:46:37;8.80;99.90
31263;DHT22;17892;52.080;9.006;2023-11-21T14:49:05;8.80;99.90
31263;DHT22;17892;52.080;9.006;2023-11-21T14:51:57;8.70;99.90
31263;DHT22;17892;52.080;9.006;2023-11-21T14:54:35;8.70;99.90
31263;DHT22;17892;52.080;9.006;2023-11-21T14:57:11;8.70;99.90
31263;DHT22;17892;52.080;9.006;2023-11-21T14:59:49;8.70;99.90
31263;DHT22;17892;52.080;9.006;2023-11-21T15:02:23;8.60;99.90
31263;DHT22;17892;52.080;9.006;2023-11-21T15:05:09;8.60;99.90
31263;DHT22;17892;52.080;9.006;2023-11-21T15:07:40;8.60;99.90
31263;DHT22;17892;52.080;9.006;2023-11-21T15:10:07;8.50;99.90
31263;DHT22;17892;52.080;9.006;2023-11-21T15:12:38;8.50;99.90
31263;DHT22;17892;52.080;9.006;2023-11-21T15:15:05;8.50;99.90
31263;DHT22;17892;52.080;9.006;2023-11-21T15:17:35;8.50;99.90
31263;DHT22;17892;52.080;9.006;2023-11-21T15:20:02;8.50;99.90
31263;DHT22;17892;52.080;9.006;2023-11-21T15:22:29;8.50;99.90
31263;DHT22;17892;52.080;9.006;2023-11-21T15:24:56;8.40;99.90
31263;DHT22;17892;52.080;9.006;2023-11-21T15:27:41;8.40;99.90
31263;DHT22;17892;52.080;9.006;2023-11-21T15:30:08;8.40;99.90
31263;DHT22;17892;52.080;9.006;2023-11-21T15:32:44;8.40;99.90
31263;DHT22;17892;52.080;9.006;2023-11-21T15:37:58;8.40;99.90
31263;DHT22;17892;52.080;9.006;2023-11-21T15:40:29;8.40;99.90
31263;DHT22;17892;52.080;9.006;2023-11-21T15:42:54;8.30;99.90
31263;DHT22;17892;52.080;9.006;2023-11-21T15:45:20;8.30;99.90
31263;DHT22;17892;52.080;9.006;2023-11-21T15:47:49;8.30;99.90
31263;DHT22;17892;52.080;9.006;2023-11-21T15:50:15;8.20;99.90
31263;DHT22;17892;52.080;9.006;2023-11-21T15:52:41;8.20;99.90
31263;DHT22;17892;52.080;9.006;2023-11-21T15:55:09;8.20;99.90
31263;DHT22;17892;52.080;9.006;2023-11-21T15:57:35;8.10;99.90
31263;DHT22;17892;52.080;9.006;2023-11-21T16:00:01;8.10;99.90
31263;DHT22;17892;52.080;9.006;2023-11-21T16:02:35;8.10;99.90
31263;DHT22;17892;52.080;9.006;2023-11-21T16:05:00;8.10;99.90
31263;DHT22;17892;52.080;9.006;2023-11-21T16:07:30;8.10;99.90
31263;DHT22;17892;52.080;9.006;2023-11-21T16:09:56;8.10;99.90